createdAt,value
2023-05-05T00:01:57.029Z,12.38
2023-05-05T00:04:26.383Z,12.58
2023-05-05T00:06:55.736Z,12.51
2023-05-05T00:09:25.037Z,12.53
2023-05-05T00:11:54.100Z,12.73
2023-05-05T00:14:24.843Z,12.70
2023-05-05T00:16:54.494Z,12.21
2023-05-05T00:19:23.658Z,12.67
2023-05-05T00:21:52.928Z,12.58
2023-05-05T00:24:22.132Z,12.83
2023-05-05T00:26:51.175Z,12.74
2023-05-05T00:29:20.265Z,12.79
2023-05-05T00:31:52.063Z,12.92
2023-05-05T00:34:22.368Z,12.72
2023-05-05T00:36:51.637Z,12.71
2023-05-05T00:39:20.625Z,12.42
2023-05-05T00:41:49.710Z,12.52
2023-05-05T00:44:18.820Z,12.44
2023-05-05T00:46:47.971Z,12.59
2023-05-05T00:49:18.429Z,12.50
2023-05-05T00:51:47.668Z,12.54
2023-05-05T00:54:17.693Z,12.34
2023-05-05T00:56:48.237Z,12.55
2023-05-05T00:59:17.633Z,12.45
2023-05-05T01:01:46.971Z,12.80
2023-05-05T01:04:16.187Z,12.53
2023-05-05T01:07:00.857Z,12.83
2023-05-05T01:09:45.769Z,12.54
2023-05-05T01:12:26.025Z,12.26
2023-05-05T01:15:03.936Z,12.10
2023-05-05T01:17:42.448Z,11.71
2023-05-05T01:20:20.831Z,11.87
2023-05-05T01:22:54.989Z,12.15
2023-05-05T01:25:46.096Z,12.19
2023-05-05T01:28:29.177Z,12.20
2023-05-05T01:31:10.820Z,12.02
2023-05-05T01:33:49.107Z,12.25
2023-05-05T01:36:24.359Z,12.27
2023-05-05T01:38:58.890Z,12.12
2023-05-05T01:41:32.059Z,12.51
2023-05-05T01:44:04.030Z,12.19
2023-05-05T01:46:35.386Z,11.06
2023-05-05T01:49:07.015Z,11.71
2023-05-05T01:51:36.929Z,11.71
2023-05-05T01:54:09.398Z,12.15
2023-05-05T01:56:41.345Z,11.87
2023-05-05T01:59:12.459Z,11.99
2023-05-05T02:01:44.884Z,11.89
2023-05-05T02:04:16.309Z,12.06
2023-05-05T02:06:50.472Z,11.81
2023-05-05T02:09:20.226Z,11.77
2023-05-05T02:11:50.610Z,11.82
2023-05-05T02:14:21.956Z,11.94
2023-05-05T02:16:53.501Z,12.12
2023-05-05T02:19:28.958Z,11.80
2023-05-05T02:21:58.400Z,11.60
2023-05-05T02:24:27.761Z,11.56
2023-05-05T02:26:59.437Z,11.65
2023-05-05T02:29:33.120Z,12.01
2023-05-05T02:32:06.464Z,11.87
2023-05-05T02:34:41.451Z,11.69
2023-05-05T02:37:19.357Z,11.55
2023-05-05T02:39:59.081Z,11.86
2023-05-05T02:42:37.651Z,11.59
2023-05-05T02:45:23.772Z,11.51
2023-05-05T02:47:53.360Z,11.59
2023-05-05T02:50:26.154Z,11.95
2023-05-05T02:53:06.841Z,11.38
2023-05-05T02:55:43.188Z,11.30
2023-05-05T02:58:23.065Z,11.44
2023-05-05T03:01:03.141Z,11.78
2023-05-05T03:03:45.559Z,11.55
2023-05-05T03:06:21.458Z,11.87
2023-05-05T03:08:56.514Z,11.55
2023-05-05T03:11:33.121Z,11.68
2023-05-05T03:14:10.177Z,11.60
2023-05-05T03:16:43.266Z,11.75
2023-05-05T03:19:15.681Z,11.76
2023-05-05T03:21:46.784Z,11.60
2023-05-05T03:24:16.851Z,11.89
2023-05-05T03:26:51.047Z,11.51
2023-05-05T03:29:23.710Z,11.43
2023-05-05T03:31:53.096Z,11.69
2023-05-05T03:34:22.575Z,11.30
2023-05-05T03:36:55.036Z,11.29
2023-05-05T03:39:24.431Z,11.39
2023-05-05T03:41:53.647Z,11.41
2023-05-05T03:44:23.987Z,11.20
2023-05-05T03:46:53.206Z,10.44
2023-05-05T03:49:28.536Z,10.47
2023-05-05T03:52:00.319Z,10.19
2023-05-05T03:54:30.038Z,10.43
2023-05-05T03:57:00.215Z,10.31
2023-05-05T03:59:31.516Z,10.55
2023-05-05T04:02:00.921Z,10.48
2023-05-05T04:04:29.975Z,10.66
2023-05-05T04:07:00.478Z,10.92
2023-05-05T04:09:29.620Z,10.92
2023-05-05T04:11:59.065Z,11.28
2023-05-05T04:14:29.152Z,11.43
2023-05-05T04:16:58.527Z,11.48
2023-05-05T04:19:28.056Z,11.69
2023-05-05T04:21:57.268Z,11.72
2023-05-05T04:24:27.807Z,11.99
2023-05-05T04:26:59.042Z,11.90
2023-05-05T04:29:30.265Z,11.69
2023-05-05T04:31:59.333Z,11.86
2023-05-05T04:34:28.528Z,11.91
2023-05-05T04:36:57.535Z,11.78
2023-05-05T04:39:35.463Z,11.42
2023-05-05T04:42:06.654Z,11.45
2023-05-05T04:44:36.047Z,11.62
2023-05-05T04:47:06.094Z,11.92
2023-05-05T04:49:35.888Z,11.64
2023-05-05T04:52:05.491Z,11.78
2023-05-05T04:54:39.597Z,11.84
2023-05-05T04:57:09.858Z,11.88
2023-05-05T04:59:38.906Z,12.30
2023-05-05T05:02:08.013Z,12.71
2023-05-05T05:04:37.523Z,12.48
2023-05-05T05:07:06.679Z,12.79
2023-05-05T05:09:38.486Z,12.91
2023-05-05T05:12:10.462Z,12.42
2023-05-05T05:14:43.966Z,12.68
2023-05-05T05:17:13.401Z,12.72
2023-05-05T05:19:43.278Z,12.98
2023-05-05T05:22:13.201Z,12.78
2023-05-05T05:24:45.979Z,12.84
2023-05-05T05:27:18.937Z,12.94
2023-05-05T05:29:51.614Z,13.43
2023-05-05T05:32:21.181Z,13.62
2023-05-05T05:34:51.104Z,13.79
2023-05-05T05:37:20.389Z,13.45
2023-05-05T05:39:55.355Z,13.72
2023-05-05T05:42:25.944Z,14.22
2023-05-05T05:44:55.678Z,14.56
2023-05-05T05:47:25.021Z,14.05
2023-05-05T05:49:54.350Z,14.41
2023-05-05T05:52:23.507Z,14.30
2023-05-05T05:54:54.142Z,14.80
2023-05-05T05:57:24.708Z,14.79
2023-05-05T05:59:55.355Z,14.38
2023-05-05T06:02:26.479Z,14.34
2023-05-05T06:04:56.659Z,14.80
2023-05-05T06:07:26.496Z,15.17
2023-05-05T06:10:14.465Z,14.84
2023-05-05T06:13:05.660Z,15.03
2023-05-05T06:15:39.171Z,15.34
2023-05-05T06:18:08.801Z,15.03
2023-05-05T06:20:38.016Z,15.63
2023-05-05T06:23:07.878Z,16.12
2023-05-05T06:25:41.548Z,15.78
2023-05-05T06:28:16.343Z,14.64
2023-05-05T06:30:45.720Z,14.87
2023-05-05T06:33:18.604Z,14.74
2023-05-05T06:35:49.579Z,15.37
2023-05-05T06:38:18.728Z,15.02
2023-05-05T06:40:50.860Z,15.84
2023-05-05T06:43:22.074Z,15.96
2023-05-05T06:45:56.801Z,15.30
2023-05-05T06:48:27.643Z,16.06
2023-05-05T06:50:59.494Z,16.21
2023-05-05T06:53:28.967Z,15.79
2023-05-05T06:55:59.750Z,16.20
2023-05-05T06:58:29.345Z,16.50
2023-05-05T07:01:01.328Z,16.34
2023-05-05T07:03:31.112Z,16.48
2023-05-05T07:06:02.053Z,16.76
2023-05-05T07:08:31.205Z,16.68
2023-05-05T07:11:02.504Z,16.54
2023-05-05T07:13:32.267Z,15.99
2023-05-05T07:16:01.916Z,15.42
2023-05-05T07:18:31.076Z,15.89
2023-05-05T07:21:01.427Z,16.43
2023-05-05T07:23:32.825Z,16.30
2023-05-05T07:26:03.285Z,15.75
2023-05-05T07:28:32.152Z,15.36
2023-05-05T07:31:06.898Z,15.55
2023-05-05T07:33:36.492Z,15.94
2023-05-05T07:36:06.422Z,15.30
2023-05-05T07:38:37.515Z,15.12
2023-05-05T07:41:08.048Z,15.96
2023-05-05T07:43:38.819Z,15.93
2023-05-05T07:46:08.881Z,16.33
2023-05-05T07:48:39.146Z,16.09
2023-05-05T07:51:08.963Z,16.82
2023-05-05T07:53:40.012Z,16.62
2023-05-05T07:56:11.035Z,16.47
2023-05-05T07:58:40.164Z,17.04
2023-05-05T08:01:11.249Z,16.46
2023-05-05T08:03:40.893Z,16.64
2023-05-05T08:06:11.058Z,16.05
2023-05-05T08:08:42.692Z,16.46
2023-05-05T08:11:13.200Z,16.50
2023-05-05T08:13:43.358Z,17.19
2023-05-05T08:16:13.077Z,17.20
2023-05-05T08:18:43.048Z,17.09
2023-05-05T08:21:13.574Z,17.32
2023-05-05T08:23:46.918Z,18.14
2023-05-05T08:26:17.812Z,17.89
2023-05-05T08:28:48.732Z,18.34
2023-05-05T08:31:18.110Z,18.84
2023-05-05T08:33:47.255Z,18.74
2023-05-05T08:36:18.397Z,18.93
2023-05-05T08:38:47.927Z,18.76
2023-05-05T08:41:20.280Z,17.71
2023-05-05T08:43:59.290Z,18.16
2023-05-05T08:46:31.257Z,16.85
2023-05-05T08:49:07.298Z,17.84
2023-05-05T08:51:43.413Z,18.44
2023-05-05T08:54:19.220Z,19.14
2023-05-05T08:56:52.353Z,18.52
2023-05-05T08:59:30.418Z,18.70
2023-05-05T09:02:02.678Z,17.65
2023-05-05T09:04:32.491Z,18.45
2023-05-05T09:07:04.203Z,18.91
2023-05-05T09:09:34.153Z,18.61
2023-05-05T09:12:05.079Z,19.17
2023-05-05T09:14:34.435Z,19.75
2023-05-05T09:17:04.956Z,20.37
2023-05-05T09:19:34.201Z,19.76
2023-05-05T09:22:03.475Z,19.80
2023-05-05T09:24:32.641Z,20.80
2023-05-05T09:27:02.296Z,18.73
2023-05-05T09:29:32.856Z,19.91
2023-05-05T09:32:05.880Z,20.40
2023-05-05T09:34:35.938Z,19.92
2023-05-05T09:37:06.182Z,20.03
2023-05-05T09:39:35.971Z,20.03
2023-05-05T09:42:05.279Z,19.69
2023-05-05T09:44:36.937Z,19.24
2023-05-05T09:47:18.001Z,19.49
2023-05-05T09:50:00.932Z,19.00
2023-05-05T09:52:30.795Z,19.07
2023-05-05T09:54:59.798Z,19.20
2023-05-05T09:57:30.819Z,19.16
2023-05-05T10:00:02.686Z,19.49
2023-05-05T10:02:41.170Z,19.15
2023-05-05T10:05:12.850Z,19.14
2023-05-05T10:07:43.554Z,19.35
2023-05-05T10:10:16.429Z,19.85
2023-05-05T10:12:48.015Z,18.93
2023-05-05T10:15:19.167Z,19.47
2023-05-05T10:18:06.052Z,21.79
2023-05-05T10:20:39.736Z,24.48
2023-05-05T10:23:16.249Z,24.93
2023-05-05T10:25:52.769Z,24.52
2023-05-05T10:28:32.996Z,23.89
2023-05-05T10:31:10.064Z,26.37
2023-05-05T10:33:54.485Z,26.85
2023-05-05T10:36:24.850Z,28.13
2023-05-05T10:38:59.641Z,24.22
2023-05-05T10:41:36.569Z,26.30
2023-05-05T10:44:07.305Z,27.70
2023-05-05T10:46:40.629Z,28.63
2023-05-05T10:49:16.956Z,30.26
2023-05-05T10:51:55.086Z,31.66
2023-05-05T10:54:31.779Z,30.18
2023-05-05T10:57:02.770Z,29.63
2023-05-05T10:59:42.492Z,30.38
2023-05-05T11:02:23.921Z,30.96
2023-05-05T11:05:07.021Z,28.81
2023-05-05T11:07:36.131Z,31.21
2023-05-05T11:10:06.637Z,31.75
2023-05-05T11:13:14.381Z,31.68
2023-05-05T11:15:43.914Z,29.56
2023-05-05T11:18:38.815Z,26.48
2023-05-05T11:21:17.189Z,26.50
2023-05-05T11:23:51.079Z,27.47
2023-05-05T11:26:36.416Z,31.48
2023-05-05T11:29:06.540Z,28.30
2023-05-05T11:31:35.713Z,30.95
2023-05-05T11:34:29.406Z,33.75
2023-05-05T11:37:01.894Z,33.32
2023-05-05T11:39:39.628Z,34.19
2023-05-05T11:42:25.920Z,30.99
2023-05-05T11:44:55.996Z,31.02
2023-05-05T11:47:32.946Z,32.74
2023-05-05T11:50:21.785Z,34.92
2023-05-05T11:52:51.188Z,32.91
2023-05-05T11:55:26.992Z,34.46
2023-05-05T11:57:56.092Z,34.06
2023-05-05T12:00:35.306Z,35.28
2023-05-05T12:03:05.779Z,32.93
2023-05-05T12:05:37.075Z,34.48
2023-05-05T12:08:06.686Z,31.81
2023-05-05T12:10:36.398Z,33.14
2023-05-05T12:13:05.863Z,33.76
2023-05-05T12:15:35.543Z,31.00
2023-05-05T12:18:06.901Z,32.82
2023-05-05T12:20:37.717Z,33.04
2023-05-05T12:23:08.336Z,32.04
2023-05-05T12:25:50.098Z,32.69
2023-05-05T12:28:20.854Z,35.15
2023-05-05T12:30:58.782Z,34.22
2023-05-05T12:33:29.311Z,34.28
2023-05-05T12:35:59.922Z,31.87
2023-05-05T12:38:29.430Z,33.61
2023-05-05T12:40:58.727Z,32.45
2023-05-05T12:43:31.229Z,35.39
2023-05-05T12:46:05.138Z,36.37
2023-05-05T12:48:38.226Z,35.95
2023-05-05T12:51:20.114Z,35.01
2023-05-05T12:53:50.208Z,34.01
2023-05-05T12:56:51.458Z,36.25
2023-05-05T12:59:32.835Z,35.94
2023-05-05T13:02:02.580Z,35.79
2023-05-05T13:04:31.806Z,34.98
2023-05-05T13:07:12.959Z,36.84
2023-05-05T13:09:43.134Z,36.41
2023-05-05T13:12:12.899Z,37.78
2023-05-05T13:14:46.573Z,37.28
2023-05-05T13:17:16.097Z,36.07
2023-05-05T13:19:47.261Z,37.76
2023-05-05T13:22:18.147Z,37.27
2023-05-05T13:24:52.372Z,33.84
2023-05-05T13:27:21.955Z,34.78
2023-05-05T13:29:51.557Z,31.84
2023-05-05T13:32:20.981Z,34.22
2023-05-05T13:34:52.762Z,36.41
2023-05-05T13:37:23.543Z,36.85
2023-05-05T13:39:53.196Z,35.20
2023-05-05T13:42:22.506Z,36.13
2023-05-05T13:44:55.784Z,36.52
2023-05-05T13:47:35.744Z,37.06
2023-05-05T13:50:05.767Z,36.63
2023-05-05T13:52:36.363Z,36.95
2023-05-05T13:55:09.409Z,36.92
2023-05-05T13:57:39.498Z,30.86
2023-05-05T14:00:09.869Z,28.65
2023-05-05T14:02:39.003Z,30.39
2023-05-05T14:05:09.883Z,29.06
2023-05-05T14:07:40.494Z,29.37
2023-05-05T14:10:14.132Z,31.59
2023-05-05T14:12:47.661Z,33.98
2023-05-05T14:15:17.193Z,34.58
2023-05-05T14:17:46.554Z,34.34
2023-05-05T14:20:16.064Z,34.89
2023-05-05T14:22:48.837Z,35.82
2023-05-05T14:25:18.691Z,35.21
2023-05-05T14:27:48.317Z,35.32
2023-05-05T14:30:18.300Z,36.44
2023-05-05T14:32:48.076Z,32.68
2023-05-05T14:35:17.299Z,30.38
2023-05-05T14:37:47.767Z,28.33
2023-05-05T14:40:17.480Z,26.08
2023-05-05T14:42:46.667Z,24.28
2023-05-05T14:45:18.035Z,24.47
2023-05-05T14:47:48.939Z,22.73
2023-05-05T14:50:18.071Z,22.98
2023-05-05T14:52:54.514Z,23.25
2023-05-05T14:55:25.060Z,25.87
2023-05-05T14:57:54.210Z,27.11
2023-05-05T15:00:23.886Z,27.13
2023-05-05T15:02:53.516Z,27.40
2023-05-05T15:05:23.055Z,31.06
2023-05-05T15:07:53.559Z,30.46
2023-05-05T15:10:23.264Z,32.10
2023-05-05T15:12:52.901Z,28.89
2023-05-05T15:15:25.729Z,25.23
2023-05-05T15:17:55.282Z,23.78
2023-05-05T15:20:25.175Z,23.89
2023-05-05T15:22:56.168Z,21.90
2023-05-05T15:25:26.177Z,22.36
2023-05-05T15:27:56.601Z,23.16
2023-05-05T15:30:26.959Z,22.89
2023-05-05T15:32:56.217Z,24.10
2023-05-05T15:35:29.713Z,28.71
2023-05-05T15:38:01.170Z,28.62
2023-05-05T15:40:31.954Z,27.05
2023-05-05T15:43:02.952Z,23.71
2023-05-05T15:45:32.554Z,22.62
2023-05-05T15:48:02.166Z,21.63
2023-05-05T15:50:31.870Z,20.29
2023-05-05T15:53:02.909Z,20.12
2023-05-05T15:55:32.713Z,20.54
2023-05-05T15:58:02.297Z,20.51
2023-05-05T16:00:33.411Z,20.39
2023-05-05T16:03:05.529Z,20.25
2023-05-05T16:05:34.831Z,19.77
2023-05-05T16:08:09.764Z,19.04
2023-05-05T16:10:39.743Z,19.12
2023-05-05T16:13:09.694Z,18.84
2023-05-05T16:15:42.457Z,19.09
2023-05-05T16:18:12.501Z,18.77
2023-05-05T16:20:44.819Z,19.15
2023-05-05T16:23:16.459Z,19.03
2023-05-05T16:25:46.242Z,18.61
2023-05-05T16:28:15.855Z,18.64
2023-05-05T16:30:45.598Z,17.98
2023-05-05T16:33:15.592Z,18.02
2023-05-05T16:35:50.977Z,17.98
2023-05-05T16:38:27.302Z,17.55
2023-05-05T16:40:56.711Z,17.66
2023-05-05T16:43:26.217Z,17.70
2023-05-05T16:45:56.083Z,17.40
2023-05-05T16:48:25.594Z,16.82
2023-05-05T16:50:57.269Z,17.23
2023-05-05T16:53:28.867Z,16.98
2023-05-05T16:55:59.000Z,17.02
2023-05-05T16:58:29.240Z,16.95
2023-05-05T17:01:02.223Z,16.85
2023-05-05T17:03:36.468Z,16.64
2023-05-05T17:06:13.227Z,16.76
2023-05-05T17:08:49.937Z,16.55
2023-05-05T17:11:21.910Z,16.42
2023-05-05T17:13:52.017Z,16.34
2023-05-05T17:16:35.413Z,15.95
2023-05-05T17:19:05.482Z,16.32
2023-05-05T17:21:35.189Z,16.27
2023-05-05T17:24:07.252Z,16.28
2023-05-05T17:26:36.832Z,16.33
2023-05-05T17:29:06.968Z,16.13
2023-05-05T17:31:39.436Z,16.20
2023-05-05T17:34:11.353Z,16.09
2023-05-05T17:36:44.806Z,16.04
2023-05-05T17:39:27.523Z,15.90
2023-05-05T17:41:57.617Z,16.04
2023-05-05T17:44:39.871Z,15.75
2023-05-05T17:47:15.690Z,15.70
2023-05-05T17:49:45.594Z,15.68
2023-05-05T17:52:15.497Z,15.61
2023-05-05T17:54:46.417Z,15.50
2023-05-05T17:57:17.065Z,15.19
2023-05-05T17:59:47.374Z,15.31
2023-05-05T18:02:18.140Z,15.36
2023-05-05T18:04:47.941Z,15.24
2023-05-05T18:07:17.897Z,15.30
2023-05-05T18:09:57.392Z,15.28
2023-05-05T18:12:27.577Z,15.08
2023-05-05T18:14:56.858Z,15.15
2023-05-05T18:17:26.476Z,15.14
2023-05-05T18:19:58.303Z,15.14
2023-05-05T18:22:29.426Z,15.09
2023-05-05T18:25:00.842Z,14.85
2023-05-05T18:27:32.671Z,14.89
2023-05-05T18:30:06.372Z,14.95
2023-05-05T18:32:39.007Z,14.91
2023-05-05T18:35:09.144Z,14.99
2023-05-05T18:37:39.777Z,14.80
2023-05-05T18:40:14.310Z,14.39
2023-05-05T18:42:47.395Z,14.71
2023-05-05T18:45:17.023Z,14.87
2023-05-05T18:47:46.409Z,14.77
2023-05-05T18:50:15.970Z,14.69
2023-05-05T18:52:45.791Z,14.43
2023-05-05T18:55:16.968Z,14.69
2023-05-05T18:57:46.981Z,14.51
2023-05-05T19:00:19.980Z,14.55
2023-05-05T19:02:49.830Z,14.44
2023-05-05T19:05:19.616Z,14.31
2023-05-05T19:07:52.206Z,14.37
2023-05-05T19:10:22.777Z,14.09
2023-05-05T19:12:52.009Z,14.16
2023-05-05T19:15:23.998Z,14.19
2023-05-05T19:17:55.862Z,13.95
2023-05-05T19:20:25.110Z,14.22
2023-05-05T19:22:55.264Z,14.12
2023-05-05T19:25:25.772Z,14.06
2023-05-05T19:27:56.117Z,14.05
2023-05-05T19:30:25.564Z,14.05
2023-05-05T19:32:55.498Z,13.85
2023-05-05T19:35:24.706Z,14.06
2023-05-05T19:37:58.026Z,14.04
2023-05-05T19:40:29.098Z,13.95
2023-05-05T19:42:58.795Z,13.84
2023-05-05T19:45:28.052Z,13.89
2023-05-05T19:47:58.073Z,13.83
2023-05-05T19:50:28.716Z,13.67
2023-05-05T19:52:58.164Z,13.13
2023-05-05T19:55:33.303Z,13.52
2023-05-05T19:58:07.247Z,13.37
2023-05-05T20:00:39.277Z,13.32
2023-05-05T20:03:08.967Z,13.29
2023-05-05T20:05:38.981Z,13.28
2023-05-05T20:08:08.784Z,13.19
2023-05-05T20:10:54.540Z,13.24
2023-05-05T20:13:28.161Z,13.25
2023-05-05T20:16:00.715Z,13.16
2023-05-05T20:18:32.734Z,13.11
2023-05-05T20:21:03.636Z,13.07
2023-05-05T20:23:34.073Z,13.16
2023-05-05T20:26:08.005Z,13.09
2023-05-05T20:28:40.412Z,12.82
2023-05-05T20:31:12.149Z,12.74
2023-05-05T20:33:43.645Z,12.58
2023-05-05T20:36:13.441Z,12.44
2023-05-05T20:38:42.857Z,12.49
2023-05-05T20:41:16.482Z,12.44
2023-05-05T20:43:45.624Z,12.39
2023-05-05T20:46:14.732Z,12.19
2023-05-05T20:48:44.554Z,12.10
2023-05-05T20:51:16.834Z,11.86
2023-05-05T20:53:47.287Z,11.99
2023-05-05T20:56:17.661Z,12.00
2023-05-05T20:58:47.147Z,11.87
2023-05-05T21:01:16.469Z,11.57
2023-05-05T21:03:46.190Z,11.76
2023-05-05T21:06:17.587Z,11.61
2023-05-05T21:08:47.343Z,11.28
2023-05-05T21:11:18.121Z,11.57
2023-05-05T21:13:47.602Z,11.40
2023-05-05T21:16:17.059Z,11.43
2023-05-05T21:18:47.593Z,11.30
2023-05-05T21:21:17.062Z,11.04
2023-05-05T21:23:48.536Z,10.97
2023-05-05T21:26:19.302Z,11.06
2023-05-05T21:28:48.956Z,10.87
2023-05-05T21:31:22.275Z,10.71
2023-05-05T21:33:51.860Z,10.81
2023-05-05T21:36:21.429Z,10.69
2023-05-05T21:38:51.129Z,10.66
2023-05-05T21:41:22.246Z,10.91
2023-05-05T21:43:51.541Z,10.78
2023-05-05T21:46:21.205Z,10.57
2023-05-05T21:48:50.571Z,10.48
2023-05-05T21:51:22.742Z,10.61
2023-05-05T21:53:52.330Z,10.52
2023-05-05T21:56:23.222Z,10.58
2023-05-05T21:58:52.228Z,10.54
2023-05-05T22:01:21.514Z,10.46
2023-05-05T22:03:50.994Z,10.37
2023-05-05T22:06:20.636Z,10.48
2023-05-05T22:08:50.436Z,10.48
2023-05-05T22:11:20.358Z,10.31
2023-05-05T22:13:51.906Z,10.18
2023-05-05T22:16:21.141Z,9.99
2023-05-05T22:18:50.975Z,10.22
2023-05-05T22:21:20.506Z,10.14
2023-05-05T22:23:49.806Z,10.32
2023-05-05T22:26:18.817Z,10.06
2023-05-05T22:28:47.846Z,9.68
2023-05-05T22:31:18.786Z,10.06
2023-05-05T22:33:48.148Z,9.94
2023-05-05T22:36:17.311Z,9.84
2023-05-05T22:38:48.742Z,9.83
2023-05-05T22:41:45.257Z,9.00
2023-05-05T22:44:15.315Z,9.39
2023-05-05T22:46:46.103Z,9.72
2023-05-05T22:49:16.192Z,9.81
2023-05-05T22:51:45.328Z,9.34
2023-05-05T22:54:14.517Z,9.79
2023-05-05T22:56:43.706Z,9.58
2023-05-05T22:59:13.115Z,9.42
2023-05-05T23:01:42.475Z,9.34
2023-05-05T23:04:13.138Z,9.43
2023-05-05T23:06:42.611Z,9.32
2023-05-05T23:09:11.919Z,9.23
2023-05-05T23:11:41.026Z,9.21
2023-05-05T23:14:10.242Z,9.21
2023-05-05T23:16:39.365Z,9.23
2023-05-05T23:19:08.618Z,9.22
2023-05-05T23:21:49.306Z,9.40
2023-05-05T23:24:21.576Z,8.87
2023-05-05T23:26:52.075Z,9.38
2023-05-05T23:29:24.027Z,9.20
2023-05-05T23:31:57.009Z,9.03
2023-05-05T23:34:28.309Z,9.52
2023-05-05T23:36:59.010Z,9.50
2023-05-05T23:39:28.260Z,9.48
2023-05-05T23:41:57.747Z,9.47
2023-05-05T23:44:27.779Z,9.38
2023-05-05T23:46:56.980Z,9.36
2023-05-05T23:49:26.656Z,8.86
2023-05-05T23:51:55.850Z,9.12
2023-05-05T23:54:26.345Z,9.44
2023-05-05T23:56:55.787Z,9.15
2023-05-05T23:59:25.344Z,8.83
